createdAt,value
2023-03-11T00:00:46.898Z,99.90
2023-03-11T00:03:17.323Z,99.90
2023-03-11T00:05:47.734Z,99.90
2023-03-11T00:08:18.304Z,99.90
2023-03-11T00:10:47.656Z,99.90
2023-03-11T00:13:18.506Z,99.90
2023-03-11T00:15:48.657Z,99.90
2023-03-11T00:18:17.684Z,99.90
2023-03-11T00:20:47.930Z,99.90
2023-03-11T00:23:27.046Z,99.90
2023-03-11T00:25:57.339Z,99.90
2023-03-11T00:28:26.756Z,99.90
2023-03-11T00:30:56.033Z,99.90
2023-03-11T00:33:26.086Z,99.90
2023-03-11T00:35:54.086Z,99.90
2023-03-11T00:38:24.210Z,99.90
2023-03-11T00:40:54.503Z,99.90
2023-03-11T00:43:21.556Z,99.90
2023-03-11T00:45:48.729Z,99.90
2023-03-11T00:48:16.782Z,99.90
2023-03-11T00:50:43.960Z,99.90
2023-03-11T00:53:11.861Z,99.90
2023-03-11T00:55:40.323Z,99.90
2023-03-11T00:58:08.453Z,99.90
2023-03-11T01:00:35.800Z,99.90
2023-03-11T01:03:02.846Z,99.90
2023-03-11T01:05:33.154Z,99.90
2023-03-11T01:08:00.497Z,99.90
2023-03-11T01:10:31.336Z,99.90
2023-03-11T01:13:00.373Z,99.90
2023-03-11T01:15:35.126Z,99.90
2023-03-11T01:18:06.772Z,99.90
2023-03-11T01:20:38.178Z,99.90
2023-03-11T01:23:07.537Z,99.90
2023-03-11T01:25:36.121Z,99.90
2023-03-11T01:28:05.540Z,99.90
2023-03-11T01:30:36.562Z,99.90
2023-03-11T01:33:05.336Z,99.90
2023-03-11T01:35:35.610Z,99.90
2023-03-11T01:38:05.844Z,99.90
2023-03-11T01:40:40.456Z,99.90
2023-03-11T01:43:28.573Z,99.90
2023-03-11T01:45:56.491Z,99.90
2023-03-11T01:48:25.436Z,99.90
2023-03-11T01:50:55.102Z,99.90
2023-03-11T01:53:25.474Z,99.90
2023-03-11T01:55:55.873Z,99.90
2023-03-11T01:58:28.379Z,99.90
2023-03-11T02:01:02.807Z,99.90
2023-03-11T02:03:40.960Z,99.90
2023-03-11T02:06:14.324Z,99.90
2023-03-11T02:08:42.515Z,99.90
2023-03-11T02:11:14.696Z,99.90
2023-03-11T02:13:45.450Z,99.90
2023-03-11T02:16:14.796Z,99.90
2023-03-11T02:18:42.885Z,99.90
2023-03-11T02:21:27.822Z,99.90
2023-03-11T02:24:16.670Z,99.90
2023-03-11T02:27:03.526Z,99.90
2023-03-11T02:29:34.798Z,99.90
2023-03-11T02:32:06.402Z,99.90
2023-03-11T02:34:37.827Z,99.90
2023-03-11T02:37:09.408Z,99.90
2023-03-11T02:39:41.467Z,99.90
2023-03-11T02:42:32.500Z,99.90
2023-03-11T02:45:08.216Z,99.90
2023-03-11T02:47:38.912Z,99.90
2023-03-11T02:50:08.049Z,99.90
2023-03-11T02:52:43.722Z,99.90
2023-03-11T02:55:12.215Z,99.90
2023-03-11T02:57:43.105Z,99.90
2023-03-11T03:00:14.957Z,99.90
2023-03-11T03:02:43.732Z,99.90
2023-03-11T03:05:13.844Z,99.90
2023-03-11T03:07:40.884Z,99.90
2023-03-11T03:10:08.690Z,99.90
2023-03-11T03:12:35.761Z,99.90
2023-03-11T03:15:03.534Z,99.90
2023-03-11T03:17:33.532Z,99.90
2023-03-11T03:20:01.618Z,99.90
2023-03-11T03:22:29.566Z,99.90
2023-03-11T03:24:57.499Z,99.90
2023-03-11T03:27:27.510Z,99.90
2023-03-11T03:29:54.567Z,99.90
2023-03-11T03:32:23.598Z,99.90
2023-03-11T03:34:50.561Z,99.90
2023-03-11T03:37:17.705Z,99.90
2023-03-11T03:39:44.778Z,99.90
2023-03-11T03:42:11.910Z,99.90
2023-03-11T03:44:38.983Z,99.90
2023-03-11T03:47:09.176Z,99.90
2023-03-11T03:49:36.206Z,99.90
2023-03-11T03:52:07.005Z,99.90
2023-03-11T03:54:35.052Z,99.90
2023-03-11T03:57:05.416Z,99.90
2023-03-11T03:59:33.454Z,99.90
2023-03-11T04:02:02.772Z,99.90
2023-03-11T04:04:31.336Z,99.90
2023-03-11T04:07:03.600Z,99.90
2023-03-11T04:09:30.528Z,99.90
2023-03-11T04:12:00.499Z,99.90
2023-03-11T04:14:30.620Z,99.90
2023-03-11T04:17:00.782Z,99.90
2023-03-11T04:19:30.971Z,99.90
2023-03-11T04:21:57.981Z,99.90
2023-03-11T04:24:25.016Z,99.90
2023-03-11T04:26:52.005Z,99.90
2023-03-11T04:29:22.087Z,99.90
2023-03-11T04:31:49.250Z,99.90
2023-03-11T04:34:17.371Z,99.90
2023-03-11T04:36:46.402Z,99.90
2023-03-11T04:39:16.467Z,99.90
2023-03-11T04:41:46.592Z,99.90
2023-03-11T04:44:16.680Z,99.90
2023-03-11T04:46:46.757Z,99.90
2023-03-11T04:49:16.911Z,99.90
2023-03-11T04:51:44.007Z,99.90
2023-03-11T04:54:11.089Z,99.90
2023-03-11T04:56:41.232Z,99.90
2023-03-11T04:59:11.283Z,99.90
2023-03-11T05:01:40.355Z,99.90
2023-03-11T05:04:07.539Z,99.90
2023-03-11T05:06:37.566Z,99.90
2023-03-11T05:09:05.886Z,99.90
2023-03-11T05:11:35.033Z,99.90
2023-03-11T05:14:04.180Z,99.90
2023-03-11T05:16:32.493Z,99.90
2023-03-11T05:18:59.650Z,99.90
2023-03-11T05:21:28.223Z,99.90
2023-03-11T05:23:58.249Z,99.90
2023-03-11T05:26:31.277Z,99.90
2023-03-11T05:29:00.431Z,99.90
2023-03-11T05:31:27.588Z,99.90
2023-03-11T05:33:57.734Z,99.90
2023-03-11T05:36:26.771Z,99.90
2023-03-11T05:38:54.754Z,99.90
2023-03-11T05:41:22.813Z,99.90
2023-03-11T05:43:55.767Z,99.90
2023-03-11T05:46:24.096Z,99.90
2023-03-11T05:48:54.188Z,99.90
2023-03-11T05:51:23.211Z,99.90
2023-03-11T05:53:50.363Z,99.90
2023-03-11T05:56:22.483Z,99.90
2023-03-11T05:58:51.910Z,99.90
2023-03-11T06:01:20.979Z,99.90
2023-03-11T06:03:49.073Z,99.90
2023-03-11T06:06:22.228Z,99.90
2023-03-11T06:08:52.395Z,99.90
2023-03-11T06:11:19.449Z,99.90
2023-03-11T06:13:52.509Z,99.90
2023-03-11T06:16:23.995Z,99.90
2023-03-11T06:18:51.547Z,99.90
2023-03-11T06:21:24.363Z,99.90
2023-03-11T06:23:51.530Z,99.90
2023-03-11T06:26:25.032Z,99.90
2023-03-11T06:28:52.719Z,99.90
2023-03-11T06:31:26.153Z,99.90
2023-03-11T06:33:59.441Z,99.90
2023-03-11T06:36:26.962Z,99.90
2023-03-11T06:38:54.882Z,99.90
2023-03-11T06:41:21.849Z,99.90
2023-03-11T06:43:52.037Z,99.90
2023-03-11T06:46:22.879Z,99.90
2023-03-11T06:48:52.759Z,99.90
2023-03-11T06:51:22.438Z,99.90
2023-03-11T06:53:53.789Z,99.90
2023-03-11T06:56:24.761Z,99.90
2023-03-11T06:58:54.138Z,99.90
2023-03-11T07:01:26.091Z,99.90
2023-03-11T07:03:56.438Z,99.90
2023-03-11T07:06:27.064Z,99.90
2023-03-11T07:08:55.537Z,99.90
2023-03-11T07:11:24.742Z,99.90
2023-03-11T07:13:55.330Z,99.90
2023-03-11T07:16:25.602Z,99.90
2023-03-11T07:18:56.890Z,99.90
2023-03-11T07:21:24.032Z,99.90
2023-03-11T07:23:55.508Z,99.90
2023-03-11T07:26:23.153Z,99.90
2023-03-11T07:28:50.189Z,99.90
2023-03-11T07:31:23.958Z,99.90
2023-03-11T07:33:53.983Z,99.90
2023-03-11T07:36:28.216Z,99.90
2023-03-11T07:38:59.627Z,99.90
2023-03-11T07:41:30.840Z,99.90
2023-03-11T07:44:00.126Z,99.90
2023-03-11T07:46:31.267Z,99.90
2023-03-11T07:48:58.521Z,99.90
2023-03-11T07:51:33.441Z,99.90
2023-03-11T07:54:02.365Z,99.90
2023-03-11T07:56:33.288Z,99.90
2023-03-11T07:59:02.483Z,99.90
2023-03-11T08:01:36.199Z,99.90
2023-03-11T08:04:06.895Z,99.90
2023-03-11T08:06:36.113Z,99.90
2023-03-11T08:09:06.606Z,99.90
2023-03-11T08:11:33.722Z,99.90
2023-03-11T08:14:03.313Z,99.90
2023-03-11T08:16:31.083Z,99.90
2023-03-11T08:18:59.248Z,99.90
2023-03-11T08:21:32.089Z,99.90
2023-03-11T08:24:02.380Z,99.90
2023-03-11T08:26:30.388Z,99.90
2023-03-11T08:29:00.370Z,99.90
2023-03-11T08:31:32.422Z,99.90
2023-03-11T08:34:06.358Z,99.90
2023-03-11T08:36:36.594Z,99.90
2023-03-11T08:39:05.708Z,99.90
2023-03-11T08:41:36.301Z,99.90
2023-03-11T08:44:03.392Z,99.90
2023-03-11T08:46:38.813Z,99.90
2023-03-11T08:49:13.133Z,99.90
2023-03-11T08:51:42.688Z,99.90
2023-03-11T08:54:11.147Z,99.90
2023-03-11T08:56:40.230Z,99.90
2023-03-11T08:59:24.511Z,99.90
2023-03-11T09:01:54.482Z,99.90
2023-03-11T09:04:22.587Z,99.90
2023-03-11T09:06:49.651Z,99.90
2023-03-11T09:09:20.518Z,99.90
2023-03-11T09:11:49.756Z,98.50
2023-03-11T09:14:20.088Z,97.90
2023-03-11T09:16:48.106Z,98.00
2023-03-11T09:19:21.172Z,98.40
2023-03-11T09:21:48.536Z,95.80
2023-03-11T09:24:18.597Z,97.10
2023-03-11T09:26:47.652Z,93.40
2023-03-11T09:29:14.825Z,91.90
2023-03-11T09:31:44.109Z,88.00
2023-03-11T09:34:16.118Z,82.00
2023-03-11T09:36:47.034Z,83.60
2023-03-11T09:39:14.374Z,85.40
2023-03-11T09:42:21.646Z,88.10
2023-03-11T09:44:57.069Z,90.20
2023-03-11T09:47:38.022Z,90.80
2023-03-11T09:50:22.436Z,91.20
2023-03-11T09:53:14.020Z,91.40
2023-03-11T09:55:52.279Z,92.40
2023-03-11T09:58:40.609Z,92.50
2023-03-11T10:01:40.524Z,93.30
2023-03-11T10:04:27.088Z,93.30
2023-03-11T10:06:57.562Z,93.70
2023-03-11T10:09:52.212Z,94.10
2023-03-11T10:12:40.968Z,95.00
2023-03-11T10:15:39.725Z,94.80
2023-03-11T10:18:44.367Z,95.00
2023-03-11T10:21:33.104Z,95.00
2023-03-11T10:24:29.429Z,94.00
2023-03-11T10:27:02.570Z,94.00
2023-03-11T10:30:02.740Z,93.20
2023-03-11T10:32:44.659Z,92.20
2023-03-11T10:35:24.717Z,92.20
2023-03-11T10:37:57.178Z,92.50
2023-03-11T10:40:34.796Z,93.40
2023-03-11T10:43:26.943Z,94.10
2023-03-11T10:46:20.124Z,94.30
2023-03-11T10:48:49.252Z,94.20
2023-03-11T10:51:34.859Z,93.50
2023-03-11T10:54:03.678Z,91.90
2023-03-11T10:56:39.500Z,90.70
2023-03-11T10:59:24.550Z,91.10
2023-03-11T11:02:21.396Z,91.60
2023-03-11T11:05:10.588Z,91.20
2023-03-11T11:07:42.473Z,91.00
2023-03-11T11:10:19.214Z,90.90
2023-03-11T11:13:07.877Z,91.70
2023-03-11T11:16:02.966Z,91.90
2023-03-11T11:18:50.271Z,91.70
2023-03-11T11:21:39.602Z,90.30
2023-03-11T11:24:25.868Z,87.90
2023-03-11T11:27:11.743Z,87.60
2023-03-11T11:29:39.035Z,88.00
2023-03-11T11:32:26.098Z,88.20
2023-03-11T11:35:17.068Z,86.20
2023-03-11T11:37:52.225Z,87.70
2023-03-11T11:40:31.540Z,88.90
2023-03-11T11:43:19.139Z,90.00
2023-03-11T11:45:55.656Z,89.20
2023-03-11T11:48:36.476Z,89.30
2023-03-11T11:51:21.435Z,90.10
2023-03-11T11:54:17.664Z,89.20
2023-03-11T11:56:47.771Z,88.70
2023-03-11T11:59:19.024Z,90.00
2023-03-11T12:01:52.332Z,89.80
2023-03-11T12:04:28.487Z,87.30
2023-03-11T12:07:29.734Z,87.50
2023-03-11T12:10:23.347Z,86.80
2023-03-11T12:13:18.117Z,85.80
2023-03-11T12:16:09.324Z,86.10
2023-03-11T12:18:56.634Z,87.40
2023-03-11T12:21:51.705Z,89.40
2023-03-11T12:24:34.704Z,89.90
2023-03-11T12:27:13.536Z,88.60
2023-03-11T12:29:48.199Z,86.80
2023-03-11T12:32:47.676Z,87.60
2023-03-11T12:35:23.631Z,88.10
2023-03-11T12:38:18.708Z,88.10
2023-03-11T12:40:49.536Z,87.40
2023-03-11T12:43:30.255Z,88.60
2023-03-11T12:46:01.279Z,88.90
2023-03-11T12:48:43.199Z,88.70
2023-03-11T12:51:33.721Z,88.90
2023-03-11T12:54:27.956Z,88.00
2023-03-11T12:57:00.530Z,86.40
2023-03-11T13:00:08.026Z,84.30
2023-03-11T13:03:17.081Z,84.80
2023-03-11T13:06:29.762Z,86.30
2023-03-11T13:08:59.090Z,83.50
2023-03-11T13:11:32.180Z,83.80
2023-03-11T13:14:20.941Z,84.20
2023-03-11T13:16:49.699Z,85.50
2023-03-11T13:19:30.247Z,87.60
2023-03-11T13:22:01.902Z,88.10
2023-03-11T13:24:31.991Z,86.50
2023-03-11T13:27:04.933Z,87.10
2023-03-11T13:30:03.123Z,88.20
2023-03-11T13:32:57.971Z,89.30
2023-03-11T13:35:42.292Z,90.30
2023-03-11T13:38:20.640Z,91.00
2023-03-11T13:40:49.678Z,91.10
2023-03-11T13:43:23.793Z,90.80
2023-03-11T13:46:13.521Z,90.60
2023-03-11T13:48:49.500Z,90.30
2023-03-11T13:51:43.486Z,90.70
2023-03-11T13:54:20.451Z,91.00
2023-03-11T13:56:58.103Z,91.30
2023-03-11T13:59:29.710Z,91.50
2023-03-11T14:02:04.783Z,91.50
2023-03-11T14:04:39.398Z,91.80
2023-03-11T14:07:24.732Z,91.40
2023-03-11T14:10:12.487Z,91.60
2023-03-11T14:12:40.526Z,91.50
2023-03-11T14:15:21.596Z,91.40
2023-03-11T14:17:49.010Z,91.70
2023-03-11T14:20:25.595Z,92.00
2023-03-11T14:22:56.126Z,92.40
2023-03-11T14:25:29.263Z,92.50
2023-03-11T14:28:01.049Z,92.60
2023-03-11T14:30:35.145Z,92.50
2023-03-11T14:33:18.554Z,92.60
2023-03-11T14:36:00.086Z,91.70
2023-03-11T14:38:31.452Z,91.90
2023-03-11T14:41:03.988Z,92.00
2023-03-11T14:43:38.695Z,92.00
2023-03-11T14:46:09.869Z,91.80
2023-03-11T14:48:47.126Z,91.70
2023-03-11T14:51:19.791Z,91.20
2023-03-11T14:54:04.379Z,91.20
2023-03-11T14:56:38.575Z,91.10
2023-03-11T14:59:26.798Z,91.30
2023-03-11T15:01:58.519Z,91.50
2023-03-11T15:04:27.494Z,91.40
2023-03-11T15:07:04.169Z,91.30
2023-03-11T15:09:33.486Z,91.40
2023-03-11T15:12:04.830Z,91.10
2023-03-11T15:14:37.458Z,91.40
2023-03-11T15:17:36.986Z,91.70
2023-03-11T15:20:34.719Z,92.00
2023-03-11T15:23:07.808Z,92.10
2023-03-11T15:25:38.801Z,92.30
2023-03-11T15:28:28.783Z,92.20
2023-03-11T15:31:35.372Z,92.30
2023-03-11T15:34:31.129Z,92.50
2023-03-11T15:37:03.302Z,92.70
2023-03-11T15:39:36.697Z,92.60
2023-03-11T15:42:07.711Z,92.90
2023-03-11T15:44:41.923Z,93.00
2023-03-11T15:47:22.016Z,93.10
2023-03-11T15:49:51.361Z,93.10
2023-03-11T15:52:20.123Z,92.90
2023-03-11T15:54:55.457Z,92.80
2023-03-11T15:57:28.280Z,92.90
2023-03-11T16:00:00.373Z,93.10
2023-03-11T16:02:32.410Z,93.20
2023-03-11T16:05:00.532Z,93.50
2023-03-11T16:07:39.621Z,93.60
2023-03-11T16:10:08.521Z,93.80
2023-03-11T16:12:36.861Z,94.00
2023-03-11T16:15:07.571Z,94.10
2023-03-11T16:17:49.255Z,94.30
2023-03-11T16:20:25.263Z,94.30
2023-03-11T16:22:56.655Z,94.50
2023-03-11T16:25:34.754Z,94.60
2023-03-11T16:28:01.849Z,94.90
2023-03-11T16:30:30.901Z,94.90
2023-03-11T16:32:58.033Z,94.90
2023-03-11T16:35:28.149Z,95.00
2023-03-11T16:37:57.358Z,95.20
2023-03-11T16:40:28.378Z,95.30
2023-03-11T16:43:05.973Z,95.50
2023-03-11T16:45:35.285Z,95.80
2023-03-11T16:48:05.734Z,96.00
2023-03-11T16:50:37.536Z,96.20
2023-03-11T16:53:06.920Z,96.30
2023-03-11T16:55:38.019Z,96.30
2023-03-11T16:58:06.016Z,96.40
2023-03-11T17:00:33.150Z,96.50
2023-03-11T17:03:00.135Z,96.50
2023-03-11T17:05:27.185Z,96.70
2023-03-11T17:08:00.231Z,96.80
2023-03-11T17:10:47.623Z,96.80
2023-03-11T17:13:17.774Z,96.90
2023-03-11T17:16:00.541Z,97.00
2023-03-11T17:18:30.623Z,97.10
2023-03-11T17:21:01.510Z,97.20
2023-03-11T17:23:29.523Z,97.40
2023-03-11T17:26:01.573Z,97.40
2023-03-11T17:28:30.736Z,97.50
2023-03-11T17:31:00.907Z,97.60
2023-03-11T17:33:28.207Z,97.40
2023-03-11T17:36:03.576Z,97.60
2023-03-11T17:38:33.859Z,97.60
2023-03-11T17:41:07.391Z,97.70
2023-03-11T17:43:37.537Z,97.70
2023-03-11T17:46:14.988Z,97.80
2023-03-11T17:48:45.929Z,97.90
2023-03-11T17:51:15.657Z,98.00
2023-03-11T17:53:46.870Z,98.10
2023-03-11T17:56:16.256Z,98.20
2023-03-11T17:58:43.912Z,98.20
2023-03-11T18:01:18.536Z,98.40
2023-03-11T18:03:49.529Z,98.50
2023-03-11T18:06:20.027Z,98.60
2023-03-11T18:08:50.811Z,98.80
2023-03-11T18:11:21.140Z,98.80
2023-03-11T18:13:48.413Z,99.00
2023-03-11T18:16:24.145Z,99.10
2023-03-11T18:18:52.688Z,99.30
2023-03-11T18:21:23.533Z,99.50
2023-03-11T18:23:55.815Z,99.50
2023-03-11T18:26:25.775Z,99.60
2023-03-11T18:28:56.327Z,99.80
2023-03-11T18:31:25.240Z,99.80
2023-03-11T18:34:03.903Z,99.90
2023-03-11T18:36:33.687Z,99.90
2023-03-11T18:39:04.873Z,99.90
2023-03-11T18:41:35.853Z,99.90
2023-03-11T18:44:03.622Z,99.90
2023-03-11T18:46:33.805Z,99.90
2023-03-11T18:49:04.004Z,99.90
2023-03-11T18:51:32.256Z,99.90
2023-03-11T18:54:02.748Z,99.90
2023-03-11T18:56:36.557Z,99.90
2023-03-11T18:59:08.653Z,99.90
2023-03-11T19:01:38.963Z,99.90
2023-03-11T19:04:09.731Z,99.90
2023-03-11T19:06:38.802Z,99.90
2023-03-11T19:09:08.064Z,99.90
2023-03-11T19:11:38.225Z,99.90
2023-03-11T19:14:08.383Z,99.90
2023-03-11T19:16:36.401Z,99.90
2023-03-11T19:19:06.873Z,99.90
2023-03-11T19:21:33.955Z,99.90
2023-03-11T19:24:01.353Z,99.90
2023-03-11T19:26:44.158Z,99.90
2023-03-11T19:29:14.388Z,99.90
2023-03-11T19:31:45.403Z,99.90
2023-03-11T19:34:15.555Z,99.90
2023-03-11T19:36:46.758Z,99.90
2023-03-11T19:39:14.047Z,99.90
2023-03-11T19:41:43.134Z,99.90
2023-03-11T19:44:13.171Z,99.90
2023-03-11T19:46:41.199Z,99.90
2023-03-11T19:49:11.365Z,99.90
2023-03-11T19:51:49.556Z,99.90
2023-03-11T19:54:20.365Z,99.90
2023-03-11T19:56:50.501Z,99.90
2023-03-11T19:59:20.545Z,99.90
2023-03-11T20:01:50.665Z,99.90
2023-03-11T20:04:17.769Z,99.90
2023-03-11T20:06:45.919Z,99.90
2023-03-11T20:09:16.260Z,99.90
2023-03-11T20:11:46.973Z,99.90
2023-03-11T20:14:14.398Z,99.90
2023-03-11T20:16:42.026Z,99.90
2023-03-11T20:19:12.225Z,99.90
2023-03-11T20:21:42.062Z,99.90
2023-03-11T20:24:10.975Z,99.90
2023-03-11T20:26:44.457Z,99.90
2023-03-11T20:29:12.477Z,99.90
2023-03-11T20:31:42.534Z,99.90
2023-03-11T20:34:13.590Z,99.90
2023-03-11T20:36:42.897Z,99.90
2023-03-11T20:39:10.750Z,99.90
2023-03-11T20:41:41.264Z,99.90
2023-03-11T20:44:11.780Z,99.90
2023-03-11T20:46:40.079Z,99.90
2023-03-11T20:49:07.540Z,99.90
2023-03-11T20:51:34.820Z,99.90
2023-03-11T20:54:04.211Z,99.90
2023-03-11T20:56:31.445Z,99.90
2023-03-11T20:58:59.580Z,99.90
2023-03-11T21:01:30.613Z,99.90
2023-03-11T21:04:00.774Z,99.90
2023-03-11T21:06:30.762Z,99.90
2023-03-11T21:09:04.956Z,99.90
2023-03-11T21:11:35.413Z,99.90
2023-03-11T21:14:04.107Z,99.90
2023-03-11T21:16:33.405Z,99.90
2023-03-11T21:19:05.674Z,99.90
2023-03-11T21:21:33.236Z,99.90
2023-03-11T21:24:00.759Z,99.90
2023-03-11T21:26:31.152Z,99.90
2023-03-11T21:29:00.796Z,99.90
2023-03-11T21:31:29.645Z,99.90
2023-03-11T21:34:01.542Z,99.90
2023-03-11T21:36:29.281Z,99.90
2023-03-11T21:38:58.388Z,99.90
2023-03-11T21:41:27.616Z,99.90
2023-03-11T21:43:56.236Z,99.90
2023-03-11T21:46:32.126Z,99.90
2023-03-11T21:49:01.727Z,99.90
2023-03-11T21:51:30.000Z,99.90
2023-03-11T21:53:59.287Z,99.90
2023-03-11T21:56:27.820Z,99.90
2023-03-11T21:58:58.292Z,99.90
2023-03-11T22:01:28.590Z,99.90
2023-03-11T22:03:56.827Z,99.90
2023-03-11T22:06:24.157Z,99.90
2023-03-11T22:08:54.418Z,99.90
2023-03-11T22:11:24.629Z,99.90
2023-03-11T22:13:57.303Z,99.90
2023-03-11T22:16:25.389Z,99.90
2023-03-11T22:18:53.939Z,99.90
2023-03-11T22:21:24.704Z,99.90
2023-03-11T22:23:54.796Z,99.90
2023-03-11T22:26:24.997Z,99.90
2023-03-11T22:28:55.099Z,99.90
2023-03-11T22:31:25.202Z,99.90
2023-03-11T22:33:55.476Z,99.90
2023-03-11T22:36:25.835Z,99.90
2023-03-11T22:38:56.974Z,99.90
2023-03-11T22:41:26.018Z,99.90
2023-03-11T22:43:59.107Z,99.90
2023-03-11T22:46:29.297Z,99.90
2023-03-11T22:48:59.652Z,99.90
2023-03-11T22:51:29.734Z,99.90
2023-03-11T22:54:00.036Z,99.90
2023-03-11T22:56:28.560Z,99.90
2023-03-11T22:58:59.394Z,99.90
2023-03-11T23:01:28.389Z,99.90
2023-03-11T23:03:55.381Z,99.90
2023-03-11T23:06:25.686Z,99.90
2023-03-11T23:08:55.706Z,99.90
2023-03-11T23:11:23.472Z,99.90
2023-03-11T23:13:52.599Z,99.90
2023-03-11T23:16:26.142Z,99.90
2023-03-11T23:18:56.420Z,99.90
2023-03-11T23:21:32.011Z,99.90
2023-03-11T23:24:03.071Z,99.90
2023-03-11T23:26:34.158Z,99.90
2023-03-11T23:29:02.935Z,99.90
2023-03-11T23:31:31.701Z,99.90
2023-03-11T23:34:02.164Z,99.90
2023-03-11T23:36:35.229Z,99.90
2023-03-11T23:39:02.169Z,99.90
2023-03-11T23:41:31.291Z,99.90
2023-03-11T23:43:58.419Z,99.90
2023-03-11T23:46:26.540Z,99.90
2023-03-11T23:49:09.367Z,99.90
2023-03-11T23:51:39.404Z,99.90
2023-03-11T23:54:07.820Z,99.90
2023-03-11T23:56:36.830Z,99.90
2023-03-11T23:59:06.783Z,99.90
